createdAt,value
2022-10-30T00:00:45.018Z,5.03
2022-10-30T00:03:13.345Z,5.43
2022-10-30T00:05:45.407Z,5.23
2022-10-30T00:08:13.675Z,5.00
2022-10-30T00:10:40.686Z,4.80
2022-10-30T00:13:07.453Z,5.30
2022-10-30T00:15:34.251Z,5.83
2022-10-30T00:18:01.133Z,4.83
2022-10-30T00:20:27.810Z,5.00
2022-10-30T00:22:54.602Z,4.63
2022-10-30T00:25:21.424Z,4.90
2022-10-30T00:27:48.258Z,5.23
2022-10-30T00:30:16.424Z,4.90
2022-10-30T00:32:43.825Z,5.23
2022-10-30T00:35:11.207Z,4.77
2022-10-30T00:37:39.320Z,5.40
2022-10-30T00:40:06.878Z,5.20
2022-10-30T00:42:33.693Z,5.23
2022-10-30T00:45:00.316Z,5.50
2022-10-30T00:47:31.824Z,4.70
2022-10-30T00:50:32.118Z,5.37
2022-10-30T00:53:05.343Z,5.40
2022-10-30T00:55:39.781Z,4.47
2022-10-30T00:58:10.738Z,5.60
2022-10-30T01:00:41.565Z,5.23
2022-10-30T01:03:08.345Z,5.43
2022-10-30T01:05:36.180Z,5.10
2022-10-30T01:08:03.545Z,5.43
2022-10-30T01:10:30.241Z,5.13
2022-10-30T01:12:59.702Z,5.70
2022-10-30T01:15:35.719Z,5.60
2022-10-30T01:18:55.086Z,5.63
2022-10-30T01:22:06.566Z,5.23
2022-10-30T01:25:19.944Z,4.80
2022-10-30T01:28:11.087Z,5.63
2022-10-30T01:31:02.880Z,5.03
2022-10-30T01:33:49.034Z,5.33
2022-10-30T01:36:21.764Z,5.57
2022-10-30T01:38:56.760Z,5.27
2022-10-30T01:41:23.419Z,5.60
2022-10-30T01:43:55.583Z,5.83
2022-10-30T01:46:39.415Z,5.20
2022-10-30T01:49:25.445Z,5.70
2022-10-30T01:52:05.479Z,5.60
2022-10-30T01:54:38.610Z,5.20
2022-10-30T01:57:42.683Z,5.90
2022-10-30T02:00:15.287Z,5.40
2022-10-30T02:02:47.569Z,5.23
2022-10-30T02:05:26.462Z,5.37
2022-10-30T02:07:54.800Z,5.83
2022-10-30T02:10:23.158Z,5.60
2022-10-30T02:12:50.216Z,5.30
2022-10-30T02:15:17.677Z,5.37
2022-10-30T02:17:44.398Z,5.27
2022-10-30T02:20:25.756Z,5.43
2022-10-30T02:22:56.235Z,5.77
2022-10-30T02:25:30.157Z,5.17
2022-10-30T02:27:56.753Z,5.40
2022-10-30T02:30:23.421Z,6.30
2022-10-30T02:32:50.069Z,5.57
2022-10-30T02:35:17.297Z,6.10
2022-10-30T02:37:47.259Z,5.17
2022-10-30T02:40:14.366Z,5.10
2022-10-30T02:42:41.014Z,5.50
2022-10-30T02:45:08.203Z,5.97
2022-10-30T02:47:34.777Z,5.90
2022-10-30T02:50:01.320Z,5.60
2022-10-30T02:52:27.902Z,6.40
2022-10-30T02:54:54.435Z,5.80
2022-10-30T02:57:21.182Z,5.70
2022-10-30T02:59:47.730Z,5.47
2022-10-30T03:02:14.800Z,5.60
2022-10-30T03:04:41.576Z,5.67
2022-10-30T03:07:10.987Z,5.57
2022-10-30T03:09:37.586Z,5.73
2022-10-30T03:12:04.405Z,5.87
2022-10-30T03:14:31.094Z,5.77
2022-10-30T03:16:57.686Z,6.37
2022-10-30T03:19:24.211Z,6.20
2022-10-30T03:21:53.916Z,5.97
2022-10-30T03:24:20.438Z,5.73
2022-10-30T03:26:48.107Z,6.13
2022-10-30T03:29:14.670Z,6.37
2022-10-30T03:31:41.241Z,6.20
2022-10-30T03:34:18.343Z,5.60
2022-10-30T03:36:45.021Z,5.37
2022-10-30T03:39:12.833Z,6.23
2022-10-30T03:41:43.506Z,5.93
2022-10-30T03:44:10.243Z,5.83
2022-10-30T03:46:37.003Z,5.87
2022-10-30T03:49:19.572Z,5.53
2022-10-30T03:51:46.167Z,5.93
2022-10-30T03:54:12.698Z,6.23
2022-10-30T03:56:39.405Z,5.17
2022-10-30T03:59:08.042Z,6.13
2022-10-30T04:01:38.853Z,6.10
2022-10-30T04:04:05.843Z,6.47
2022-10-30T04:06:32.388Z,5.77
2022-10-30T04:08:59.078Z,5.90
2022-10-30T04:11:26.078Z,6.80
2022-10-30T04:13:52.702Z,6.20
2022-10-30T04:16:19.358Z,6.37
2022-10-30T04:18:46.061Z,6.07
2022-10-30T04:21:12.630Z,6.53
2022-10-30T04:23:39.497Z,5.93
2022-10-30T04:26:06.229Z,6.70
2022-10-30T04:28:36.564Z,5.77
2022-10-30T04:31:03.884Z,6.20
2022-10-30T04:33:31.361Z,6.97
2022-10-30T04:35:59.116Z,6.63
2022-10-30T04:38:26.155Z,6.43
2022-10-30T04:40:52.767Z,7.23
2022-10-30T04:43:19.442Z,6.40
2022-10-30T04:45:49.795Z,5.77
2022-10-30T04:48:18.238Z,7.13
2022-10-30T04:50:46.779Z,6.00
2022-10-30T04:53:21.155Z,5.97
2022-10-30T04:55:54.729Z,5.83
2022-10-30T04:58:21.733Z,6.17
2022-10-30T05:01:00.369Z,6.40
2022-10-30T05:03:30.116Z,6.27
2022-10-30T05:05:59.207Z,7.17
2022-10-30T05:08:26.166Z,6.63
2022-10-30T05:10:54.723Z,6.37
2022-10-30T05:13:21.448Z,6.43
2022-10-30T05:15:48.031Z,6.63
2022-10-30T05:18:14.895Z,6.17
2022-10-30T05:20:41.872Z,5.57
2022-10-30T05:23:09.880Z,6.13
2022-10-30T05:25:36.472Z,6.23
2022-10-30T05:28:06.957Z,5.93
2022-10-30T05:30:40.957Z,5.63
2022-10-30T05:33:18.055Z,5.93
2022-10-30T05:35:44.825Z,6.07
2022-10-30T05:38:11.923Z,5.30
2022-10-30T05:40:38.769Z,6.10
2022-10-30T05:43:06.031Z,6.43
2022-10-30T05:45:34.160Z,5.67
2022-10-30T05:48:05.609Z,6.37
2022-10-30T05:50:38.822Z,5.17
2022-10-30T05:53:31.983Z,5.90
2022-10-30T05:55:59.862Z,6.10
2022-10-30T05:58:31.060Z,5.70
2022-10-30T06:01:05.611Z,5.43
2022-10-30T06:03:43.581Z,5.43
2022-10-30T06:06:11.394Z,6.10
2022-10-30T06:08:38.123Z,5.90
2022-10-30T06:11:37.552Z,5.83
2022-10-30T06:14:04.553Z,6.47
2022-10-30T06:16:41.263Z,5.90
2022-10-30T06:19:24.526Z,5.90
2022-10-30T06:21:54.783Z,5.43
2022-10-30T06:24:27.438Z,6.30
2022-10-30T06:29:20.451Z,5.80
2022-10-30T06:31:47.190Z,5.97
2022-10-30T06:34:13.884Z,5.60
2022-10-30T06:36:42.010Z,6.33
2022-10-30T06:39:08.647Z,5.60
2022-10-30T06:41:42.549Z,6.53
2022-10-30T06:44:27.559Z,6.20
2022-10-30T06:46:54.415Z,5.53
2022-10-30T06:49:21.046Z,5.83
2022-10-30T06:51:50.679Z,5.73
2022-10-30T06:54:17.596Z,6.77
2022-10-30T06:56:59.383Z,5.50
2022-10-30T06:59:44.558Z,5.67
2022-10-30T07:02:29.556Z,6.20
2022-10-30T07:05:01.763Z,6.10
2022-10-30T07:07:29.264Z,5.73
2022-10-30T07:09:56.320Z,6.67
2022-10-30T07:12:37.988Z,6.40
2022-10-30T07:15:20.497Z,5.57
2022-10-30T07:18:05.706Z,5.50
2022-10-30T07:20:36.290Z,6.27
2022-10-30T07:23:03.827Z,5.37
2022-10-30T07:25:30.527Z,5.67
2022-10-30T07:28:06.480Z,5.60
2022-10-30T07:30:41.501Z,5.60
2022-10-30T07:33:17.691Z,5.50
2022-10-30T07:36:14.966Z,5.83
2022-10-30T07:38:48.548Z,5.57
2022-10-30T07:41:34.011Z,5.50
2022-10-30T07:44:39.067Z,5.20
2022-10-30T07:47:29.734Z,5.07
2022-10-30T07:50:02.599Z,5.10
2022-10-30T07:52:32.762Z,6.20
2022-10-30T07:55:00.010Z,5.23
2022-10-30T07:57:46.628Z,5.30
2022-10-30T08:00:31.836Z,5.40
2022-10-30T08:03:09.200Z,5.23
2022-10-30T08:05:56.185Z,5.37
2022-10-30T08:08:28.607Z,5.17
2022-10-30T08:11:07.425Z,5.63
2022-10-30T08:13:34.699Z,5.40
2022-10-30T08:16:01.261Z,5.60
2022-10-30T08:18:27.962Z,5.33
2022-10-30T08:20:54.608Z,5.23
2022-10-30T08:23:21.805Z,4.83
2022-10-30T08:25:48.441Z,5.03
2022-10-30T08:28:15.760Z,4.70
2022-10-30T08:30:44.232Z,5.07
2022-10-30T08:33:14.586Z,5.30
2022-10-30T08:35:58.549Z,5.40
2022-10-30T08:38:27.468Z,5.50
2022-10-30T08:41:10.140Z,5.47
2022-10-30T08:43:43.716Z,6.40
2022-10-30T08:46:10.377Z,5.07
2022-10-30T08:48:36.907Z,5.60
2022-10-30T08:51:03.824Z,5.23
2022-10-30T08:53:37.113Z,5.50
2022-10-30T08:56:09.237Z,5.27
2022-10-30T08:58:50.730Z,5.23
2022-10-30T09:01:19.046Z,5.20
2022-10-30T09:04:04.321Z,5.50
2022-10-30T09:06:49.445Z,5.23
2022-10-30T09:09:44.329Z,5.67
2022-10-30T09:12:11.603Z,5.20
2022-10-30T09:14:42.475Z,5.40
2022-10-30T09:17:10.794Z,5.23
2022-10-30T09:19:38.549Z,5.70
2022-10-30T09:22:06.327Z,5.47
2022-10-30T09:24:38.889Z,5.20
2022-10-30T09:27:28.344Z,5.50
2022-10-30T09:29:57.206Z,5.57
2022-10-30T09:32:28.798Z,5.17
2022-10-30T09:35:08.999Z,5.77
2022-10-30T09:37:38.884Z,5.30
2022-10-30T09:40:22.422Z,5.40
2022-10-30T09:42:51.133Z,5.57
2022-10-30T09:45:40.822Z,5.20
2022-10-30T09:48:26.097Z,5.57
2022-10-30T09:51:20.119Z,5.00
2022-10-30T09:54:01.680Z,4.93
2022-10-30T09:56:44.468Z,5.13
2022-10-30T09:59:25.750Z,5.00
2022-10-30T10:02:03.414Z,5.00
2022-10-30T10:04:41.177Z,5.50
2022-10-30T10:07:37.624Z,5.07
2022-10-30T10:10:45.978Z,5.23
2022-10-30T10:13:26.971Z,5.37
2022-10-30T10:16:25.055Z,5.57
2022-10-30T10:19:16.468Z,4.90
2022-10-30T10:21:48.525Z,5.17
2022-10-30T10:24:22.765Z,4.90
2022-10-30T10:27:00.033Z,4.97
2022-10-30T10:29:35.282Z,4.97
2022-10-30T10:32:20.692Z,5.10
2022-10-30T10:35:05.305Z,4.97
2022-10-30T10:37:46.553Z,4.80
2022-10-30T10:40:25.718Z,5.13
2022-10-30T10:43:22.978Z,5.00
2022-10-30T10:46:23.665Z,4.40
2022-10-30T10:49:14.605Z,4.17
2022-10-30T10:51:45.740Z,4.03
2022-10-30T10:54:18.340Z,4.43
2022-10-30T10:56:49.293Z,5.03
2022-10-30T10:59:15.902Z,4.83
2022-10-30T11:02:34.060Z,4.97
2022-10-30T11:05:38.514Z,4.70
2022-10-30T11:08:20.262Z,4.97
2022-10-30T11:10:51.502Z,4.67
2022-10-30T11:13:18.070Z,4.77
2022-10-30T11:16:04.538Z,4.80
2022-10-30T11:18:31.487Z,4.53
2022-10-30T11:21:04.403Z,4.53
2022-10-30T11:23:35.688Z,4.93
2022-10-30T11:26:03.262Z,4.50
2022-10-30T11:29:03.245Z,4.90
2022-10-30T11:31:37.718Z,5.00
2022-10-30T11:34:19.740Z,4.40
2022-10-30T11:36:50.768Z,4.53
2022-10-30T11:39:34.545Z,4.67
2022-10-30T11:42:12.490Z,4.53
2022-10-30T11:44:44.978Z,4.90
2022-10-30T11:47:15.463Z,4.40
2022-10-30T11:49:56.751Z,4.47
2022-10-30T11:52:25.379Z,4.07
2022-10-30T11:55:00.867Z,4.50
2022-10-30T11:57:48.289Z,4.50
2022-10-30T12:00:27.177Z,4.27
2022-10-30T12:02:56.879Z,4.43
2022-10-30T12:05:37.983Z,4.23
2022-10-30T12:08:07.295Z,4.17
2022-10-30T12:10:52.752Z,4.00
2022-10-30T12:13:22.589Z,4.03
2022-10-30T12:16:03.160Z,4.33
2022-10-30T12:18:30.553Z,4.40
2022-10-30T12:20:58.285Z,3.97
2022-10-30T12:23:27.980Z,4.13
2022-10-30T12:26:15.582Z,4.27
2022-10-30T12:28:53.623Z,4.50
2022-10-30T12:31:25.933Z,3.67
2022-10-30T12:34:26.728Z,3.87
2022-10-30T12:37:29.037Z,3.97
2022-10-30T12:40:10.507Z,3.80
2022-10-30T12:42:54.717Z,3.97
2022-10-30T12:45:27.131Z,4.33
2022-10-30T12:48:02.390Z,4.00
2022-10-30T12:50:45.132Z,4.70
2022-10-30T12:53:22.197Z,4.30
2022-10-30T12:55:54.501Z,4.27
2022-10-30T12:58:31.498Z,4.23
2022-10-30T13:01:27.012Z,4.13
2022-10-30T13:04:01.775Z,4.00
2022-10-30T13:06:36.949Z,3.93
2022-10-30T13:09:19.249Z,3.83
2022-10-30T13:11:54.046Z,3.70
2022-10-30T13:14:32.201Z,3.90
2022-10-30T13:16:58.848Z,4.03
2022-10-30T13:19:26.997Z,3.70
2022-10-30T13:22:08.617Z,3.67
2022-10-30T13:24:51.919Z,3.33
2022-10-30T13:27:25.410Z,3.80
2022-10-30T13:30:05.783Z,4.10
2022-10-30T13:32:38.581Z,3.40
2022-10-30T13:35:35.842Z,3.53
2022-10-30T13:38:24.370Z,4.10
2022-10-30T13:41:03.841Z,3.90
2022-10-30T13:43:41.935Z,3.67
2022-10-30T13:46:32.837Z,3.77
2022-10-30T13:49:25.633Z,3.13
2022-10-30T13:52:05.331Z,3.17
2022-10-30T13:54:50.142Z,3.40
2022-10-30T13:57:28.575Z,3.47
2022-10-30T14:00:37.334Z,3.50
2022-10-30T14:03:38.449Z,3.40
2022-10-30T14:06:16.472Z,3.77
2022-10-30T14:09:18.493Z,4.50
2022-10-30T14:11:45.302Z,3.90
2022-10-30T14:14:24.244Z,4.10
2022-10-30T14:17:12.194Z,4.53
2022-10-30T14:20:13.303Z,4.07
2022-10-30T14:22:40.957Z,4.17
2022-10-30T14:25:16.553Z,3.97
2022-10-30T14:27:43.550Z,3.97
2022-10-30T14:30:19.421Z,3.53
2022-10-30T14:32:51.798Z,3.73
2022-10-30T14:35:45.044Z,4.27
2022-10-30T14:38:11.635Z,3.97
2022-10-30T14:40:47.464Z,3.77
2022-10-30T14:43:26.762Z,3.50
2022-10-30T14:45:59.550Z,3.60
2022-10-30T14:48:48.462Z,3.90
2022-10-30T14:51:41.458Z,3.80
2022-10-30T14:54:37.345Z,3.70
2022-10-30T14:57:04.241Z,3.30
2022-10-30T14:59:33.455Z,3.80
2022-10-30T15:02:16.151Z,3.93
2022-10-30T15:04:45.832Z,3.80
2022-10-30T15:07:27.706Z,3.90
2022-10-30T15:10:09.725Z,3.50
2022-10-30T15:13:05.747Z,3.43
2022-10-30T15:15:32.709Z,3.50
2022-10-30T15:18:04.156Z,4.10
2022-10-30T15:20:34.006Z,4.03
2022-10-30T15:23:21.435Z,3.70
2022-10-30T15:25:52.392Z,4.33
2022-10-30T15:31:02.305Z,3.80
2022-10-30T15:33:32.912Z,3.63
2022-10-30T15:35:59.989Z,4.13
2022-10-30T15:38:27.007Z,3.53
2022-10-30T15:40:58.514Z,2.93
2022-10-30T15:43:34.314Z,3.30
2022-10-30T15:46:01.192Z,3.30
2022-10-30T15:48:30.887Z,3.27
2022-10-30T15:51:03.595Z,3.17
2022-10-30T15:53:45.267Z,3.37
2022-10-30T15:56:44.541Z,3.17
2022-10-30T15:59:27.793Z,3.23
2022-10-30T16:01:56.225Z,3.37
2022-10-30T16:04:31.385Z,3.53
2022-10-30T16:07:01.238Z,2.77
2022-10-30T16:09:28.794Z,3.37
2022-10-30T16:11:58.435Z,3.27
2022-10-30T16:14:30.547Z,2.80
2022-10-30T16:17:00.439Z,3.37
2022-10-30T16:19:33.447Z,3.97
2022-10-30T16:22:00.221Z,3.50
2022-10-30T16:24:35.472Z,3.17
2022-10-30T16:27:03.363Z,3.33
2022-10-30T16:29:30.734Z,3.10
2022-10-30T16:31:57.891Z,3.80
2022-10-30T16:34:43.113Z,3.33
2022-10-30T16:37:46.518Z,3.50
2022-10-30T16:40:19.623Z,3.60
2022-10-30T16:42:50.633Z,3.57
2022-10-30T16:45:17.242Z,3.70
2022-10-30T16:47:49.258Z,4.30
2022-10-30T16:50:17.401Z,3.67
2022-10-30T16:52:44.189Z,4.70
2022-10-30T16:55:22.461Z,4.73
2022-10-30T16:57:55.548Z,4.40
2022-10-30T17:00:27.257Z,4.80
2022-10-30T17:02:56.668Z,4.60
2022-10-30T17:05:25.853Z,4.13
2022-10-30T17:08:00.205Z,4.37
2022-10-30T17:10:36.669Z,4.10
2022-10-30T17:13:36.735Z,4.07
2022-10-30T17:16:29.953Z,4.20
2022-10-30T17:18:59.217Z,4.13
2022-10-30T17:21:40.842Z,5.03
2022-10-30T17:24:28.221Z,4.53
2022-10-30T17:26:57.514Z,4.70
2022-10-30T17:29:36.292Z,5.47
2022-10-30T17:32:23.112Z,4.80
2022-10-30T17:35:01.005Z,5.13
2022-10-30T17:37:28.388Z,3.97
2022-10-30T17:39:54.928Z,6.27
2022-10-30T17:42:21.493Z,5.03
2022-10-30T17:44:48.180Z,4.70
2022-10-30T17:47:17.849Z,5.90
2022-10-30T17:49:45.164Z,4.63
2022-10-30T17:52:16.758Z,4.90
2022-10-30T17:54:44.045Z,4.90
2022-10-30T17:57:11.798Z,5.10
2022-10-30T17:59:42.690Z,5.23
2022-10-30T18:02:14.994Z,4.40
2022-10-30T18:04:45.197Z,4.13
2022-10-30T18:07:13.031Z,5.20
2022-10-30T18:09:39.985Z,5.40
2022-10-30T18:12:08.221Z,5.40
2022-10-30T18:14:34.747Z,5.03
2022-10-30T18:17:01.274Z,4.67
2022-10-30T18:19:27.957Z,5.40
2022-10-30T18:21:54.613Z,4.97
2022-10-30T18:24:21.619Z,5.50
2022-10-30T18:26:48.466Z,4.37
2022-10-30T18:29:14.970Z,4.57
2022-10-30T18:31:41.606Z,5.30
2022-10-30T18:34:17.190Z,4.70
2022-10-30T18:36:44.267Z,4.93
2022-10-30T18:39:12.772Z,4.93
2022-10-30T18:41:44.714Z,5.00
2022-10-30T18:44:16.287Z,5.00
2022-10-30T18:46:43.277Z,4.40
2022-10-30T18:49:09.895Z,5.53
2022-10-30T18:51:36.548Z,5.07
2022-10-30T18:54:03.386Z,5.00
2022-10-30T18:56:32.508Z,4.97
2022-10-30T18:59:02.339Z,5.53
2022-10-30T19:01:31.835Z,4.80
2022-10-30T19:04:01.159Z,5.60
2022-10-30T19:06:28.064Z,5.73
2022-10-30T19:08:54.664Z,5.20
2022-10-30T19:11:24.673Z,5.20
2022-10-30T19:13:53.226Z,5.43
2022-10-30T19:16:20.911Z,5.53
2022-10-30T19:18:48.436Z,5.50
2022-10-30T19:21:20.876Z,4.70
2022-10-30T19:23:48.238Z,5.03
2022-10-30T19:26:15.927Z,4.87
2022-10-30T19:28:43.241Z,4.40
2022-10-30T19:31:19.648Z,4.93
2022-10-30T19:33:51.434Z,4.77
2022-10-30T19:36:25.813Z,4.70
2022-10-30T19:38:52.296Z,5.43
2022-10-30T19:41:18.899Z,4.70
2022-10-30T19:43:45.573Z,5.33
2022-10-30T19:46:14.474Z,4.47
2022-10-30T19:48:56.800Z,5.00
2022-10-30T19:51:24.154Z,4.67
2022-10-30T19:53:52.507Z,4.93
2022-10-30T19:56:20.269Z,4.80
2022-10-30T19:58:46.831Z,4.37
2022-10-30T20:01:13.694Z,4.57
2022-10-30T20:03:40.254Z,4.63
2022-10-30T20:06:07.110Z,4.77
2022-10-30T20:08:33.619Z,4.70
2022-10-30T20:11:01.876Z,5.33
2022-10-30T20:13:29.530Z,5.10
2022-10-30T20:15:58.712Z,4.77
2022-10-30T20:18:30.151Z,5.07
2022-10-30T20:20:59.472Z,5.30
2022-10-30T20:23:26.722Z,5.00
2022-10-30T20:25:58.465Z,5.27
2022-10-30T20:28:38.088Z,4.90
2022-10-30T20:31:06.061Z,4.77
2022-10-30T20:33:33.155Z,5.00
2022-10-30T20:35:59.748Z,5.50
2022-10-30T20:38:29.242Z,5.10
2022-10-30T20:40:57.387Z,5.13
2022-10-30T20:43:37.940Z,4.80
2022-10-30T20:46:09.560Z,5.13
2022-10-30T20:48:37.785Z,5.07
2022-10-30T20:51:05.987Z,5.20
2022-10-30T20:53:32.967Z,5.27
2022-10-30T20:55:59.723Z,5.17
2022-10-30T20:58:26.313Z,6.07
2022-10-30T21:01:00.006Z,5.27
2022-10-30T21:47:52.872Z,7.77
2022-10-30T21:50:19.470Z,7.00
2022-10-30T21:52:45.925Z,6.70
2022-10-30T21:55:12.469Z,6.30
2022-10-30T21:57:38.996Z,6.40
2022-10-30T22:00:07.439Z,5.83
2022-10-30T22:02:35.476Z,6.27
2022-10-30T22:05:02.875Z,5.57
2022-10-30T22:07:29.373Z,6.80
2022-10-30T22:09:56.485Z,6.03
2022-10-30T22:12:23.139Z,6.60
2022-10-30T22:14:51.188Z,6.77
2022-10-30T22:17:17.675Z,6.07
2022-10-30T22:19:44.215Z,6.27
2022-10-30T22:22:11.136Z,6.70
2022-10-30T22:24:38.578Z,5.60
2022-10-30T22:27:05.066Z,6.27
2022-10-30T22:29:31.964Z,5.97
2022-10-30T22:31:59.349Z,5.47
2022-10-30T22:34:26.869Z,19.90
2022-10-30T22:36:53.435Z,11.17
2022-10-30T22:39:20.343Z,8.63
2022-10-30T22:41:47.011Z,6.70
2022-10-30T22:44:17.273Z,6.07
2022-10-30T22:46:43.926Z,5.80
2022-10-30T22:49:10.708Z,5.63
2022-10-30T22:51:38.916Z,5.07
2022-10-30T22:54:09.335Z,6.10
2022-10-30T22:56:36.831Z,5.60
2022-10-30T22:59:06.793Z,5.50
2022-10-30T23:01:36.663Z,5.77
2022-10-30T23:04:04.461Z,5.50
2022-10-30T23:06:32.418Z,5.60
2022-10-30T23:09:01.265Z,5.33
2022-10-30T23:11:29.576Z,6.03
2022-10-30T23:13:57.086Z,5.30
2022-10-30T23:16:25.484Z,6.47
2022-10-30T23:18:54.588Z,6.10
2022-10-30T23:21:23.046Z,6.60
2022-10-30T23:23:50.290Z,5.57
2022-10-30T23:26:46.212Z,6.70
2022-10-30T23:29:13.561Z,5.73
2022-10-30T23:31:41.708Z,6.00
2022-10-30T23:34:13.100Z,5.33
2022-10-30T23:36:40.439Z,5.63
2022-10-30T23:39:10.395Z,5.97
2022-10-30T23:41:37.146Z,6.00
2022-10-30T23:44:06.749Z,6.00
2022-10-30T23:46:34.836Z,5.57
2022-10-30T23:49:02.478Z,5.40
2022-10-30T23:51:29.457Z,5.73
2022-10-30T23:53:56.339Z,6.80
2022-10-30T23:56:26.321Z,5.70
2022-10-30T23:58:53.091Z,5.43
